createdAt,value
2018-05-03T08:41:07.697Z,101684.14
2018-05-03T08:43:33.781Z,101683.48
2018-05-03T08:45:59.773Z,101690.23
2018-05-03T08:48:25.850Z,101689.09
2018-05-03T08:50:51.868Z,101688.99
2018-05-03T08:53:17.909Z,101691.05
2018-05-03T08:55:44.314Z,101699.45
2018-05-03T08:58:10.448Z,101702.59
2018-05-03T09:00:36.460Z,101704.57
2018-05-03T09:03:02.546Z,101700.70
2018-05-03T09:05:28.732Z,101708.05
2018-05-03T09:07:55.158Z,101707.16
2018-05-03T09:10:21.436Z,101711.28
2018-05-03T09:12:47.504Z,101717.89
2018-05-03T09:15:13.537Z,101723.69
2018-05-03T09:17:39.608Z,101720.27
2018-05-03T09:20:05.644Z,101723.81
2018-05-03T09:22:31.820Z,101722.43
2018-05-03T09:24:57.835Z,101727.30
2018-05-03T09:27:24.057Z,101729.59
2018-05-03T09:29:50.106Z,101729.21
2018-05-03T09:32:16.169Z,101737.86
2018-05-03T09:34:42.313Z,101733.13
2018-05-03T09:37:08.363Z,101735.02
2018-05-03T09:39:34.379Z,101734.25
2018-05-03T09:42:00.424Z,101740.34
2018-05-03T09:44:26.607Z,101732.74
2018-05-03T09:46:52.649Z,101733.92
2018-05-03T09:49:18.784Z,101736.81
2018-05-03T09:51:44.781Z,101738.30
2018-05-03T09:54:10.885Z,101738.80
2018-05-03T09:56:36.903Z,101745.61
2018-05-03T09:59:03.044Z,101747.77
2018-05-03T10:01:29.059Z,101747.12
2018-05-03T10:03:55.152Z,101748.30
2018-05-03T10:06:21.514Z,101757.34
2018-05-03T10:08:48.193Z,101758.65
2018-05-03T10:11:14.258Z,101769.00
2018-05-03T10:13:40.286Z,101764.88
2018-05-03T10:16:06.286Z,101760.48
2018-05-03T10:18:32.372Z,101762.56
2018-05-03T10:20:58.424Z,101777.30
2018-05-03T10:23:24.585Z,101774.58
2018-05-03T10:25:50.609Z,101781.63
2018-05-03T10:28:16.732Z,101787.19
2018-05-03T10:30:42.734Z,101793.22
2018-05-03T10:33:08.848Z,101798.83
2018-05-03T10:35:34.896Z,101795.90
2018-05-03T10:38:01.491Z,101792.33
2018-05-03T10:40:27.602Z,101808.16
2018-05-03T10:42:53.645Z,101805.05
2018-05-03T10:45:19.673Z,101805.34
2018-05-03T10:47:45.689Z,101803.22
2018-05-03T10:50:11.849Z,101817.50
2018-05-03T10:52:37.861Z,101816.02
2018-05-03T10:55:03.940Z,101806.90
2018-05-03T10:57:30.061Z,101811.58
2018-05-03T10:59:55.999Z,101808.75
2018-05-03T11:02:22.063Z,101804.95
2018-05-03T11:04:48.072Z,101812.65
2018-05-03T11:07:14.074Z,101808.18
2018-05-03T11:09:40.109Z,101809.69
2018-05-03T11:12:06.371Z,101816.43
2018-05-03T11:14:32.653Z,101823.28
2018-05-03T11:16:58.791Z,101821.27
2018-05-03T11:19:24.991Z,101823.47
2018-05-03T11:21:51.076Z,101828.78
2018-05-03T11:24:17.102Z,101838.92
2018-05-03T11:26:43.267Z,101826.16
2018-05-03T11:29:09.536Z,101824.98
2018-05-03T11:31:35.649Z,101836.70
2018-05-03T11:34:01.663Z,101826.16
2018-05-03T11:36:27.690Z,101840.20
2018-05-03T11:38:54.255Z,101842.78
2018-05-03T11:41:20.278Z,101839.20
2018-05-03T11:43:46.289Z,101844.13
2018-05-03T11:46:12.370Z,101840.50
2018-05-03T11:48:38.496Z,101840.83
2018-05-03T11:51:04.542Z,101845.16
2018-05-03T11:53:30.540Z,101839.70
2018-05-03T11:55:56.696Z,101844.05
2018-05-03T11:58:22.731Z,101841.46
2018-05-03T12:00:48.843Z,101839.33
2018-05-03T12:03:14.854Z,101833.77
2018-05-03T12:05:41.747Z,101841.41
2018-05-03T12:08:07.772Z,101848.77
2018-05-03T12:10:33.788Z,101837.94
2018-05-03T12:12:59.782Z,101838.02
2018-05-03T12:15:25.851Z,101836.81
2018-05-03T12:17:51.856Z,101847.55
2018-05-03T12:20:17.906Z,101849.22
2018-05-03T12:22:43.884Z,101841.36
2018-05-03T12:25:09.876Z,101846.83
2018-05-03T12:27:35.883Z,101843.47
2018-05-03T12:30:01.885Z,101846.26
2018-05-03T12:32:27.903Z,101849.39
2018-05-03T12:34:54.296Z,101855.23
2018-05-03T12:37:20.628Z,101851.64
2018-05-03T12:39:46.654Z,101850.05
2018-05-03T12:42:19.520Z,101849.58
2018-05-03T12:44:45.545Z,101843.95
2018-05-03T12:47:11.553Z,101846.59
2018-05-03T12:49:37.582Z,101849.31
2018-05-03T12:52:03.771Z,101850.41
2018-05-03T12:54:29.785Z,101851.68
2018-05-03T12:56:55.850Z,101851.27
2018-05-03T12:59:21.919Z,101849.38
2018-05-03T13:01:47.924Z,101855.41
2018-05-03T13:04:14.129Z,101856.91
2018-05-03T13:06:40.368Z,101851.35
2018-05-03T13:09:06.409Z,101858.31
2018-05-03T13:11:32.404Z,101856.63
2018-05-03T13:13:58.433Z,101860.19
2018-05-03T13:16:24.474Z,101857.00
2018-05-03T13:18:50.458Z,101861.75
2018-05-03T13:21:16.495Z,101862.98
2018-05-03T13:23:42.522Z,101860.48
2018-05-03T13:26:08.537Z,101869.73
2018-05-03T13:28:34.623Z,101870.16
2018-05-03T13:31:00.633Z,101869.73
2018-05-03T13:33:26.698Z,101868.97
2018-05-03T13:35:52.760Z,101868.97
2018-05-03T13:38:18.817Z,101867.03
2018-05-03T13:40:44.878Z,101862.33
2018-05-03T13:43:11.008Z,101853.20
2018-05-03T13:45:37.668Z,101859.70
2018-05-03T13:48:03.755Z,101858.04
2018-05-03T13:50:29.785Z,101853.47
2018-05-03T13:52:55.811Z,101855.69
2018-05-03T13:55:21.859Z,101859.90
2018-05-03T13:57:47.857Z,101860.97
2018-05-03T14:00:13.867Z,101862.47
2018-05-03T14:02:39.981Z,101858.16
2018-05-03T14:05:06.041Z,101859.96
2018-05-03T14:07:32.043Z,101868.41
2018-05-03T14:09:58.077Z,101858.86
2018-05-03T14:12:24.122Z,101861.98
2018-05-03T14:14:50.129Z,101856.08
2018-05-03T14:17:16.133Z,101858.42
2018-05-03T14:19:42.272Z,101861.28
2018-05-03T14:22:08.301Z,101859.16
2018-05-03T14:24:34.385Z,101857.16
2018-05-03T14:27:01.160Z,101859.32
2018-05-03T14:29:27.267Z,101859.41
2018-05-03T14:31:53.340Z,101852.02
2018-05-03T14:34:19.372Z,101849.66
2018-05-03T14:36:45.465Z,101857.73
2018-05-03T14:39:11.516Z,101856.63
2018-05-03T14:41:37.508Z,101857.49
2018-05-03T14:44:03.572Z,101858.64
2018-05-03T14:46:29.652Z,101858.02
2018-05-03T14:48:55.697Z,101863.16
2018-05-03T14:51:21.710Z,101857.17
2018-05-03T14:53:47.718Z,101855.95
2018-05-03T14:56:13.800Z,101861.75
2018-05-03T14:58:39.859Z,101855.15
2018-05-03T15:01:05.867Z,101860.27
2018-05-03T15:03:31.927Z,101857.73
2018-05-03T15:05:57.955Z,101868.68
2018-05-03T15:08:24.040Z,101867.98
2018-05-03T15:10:50.120Z,101857.11
2018-05-03T15:13:16.115Z,101861.67
2018-05-03T15:15:42.125Z,101865.98
2018-05-03T15:18:08.160Z,101855.38
2018-05-03T15:20:34.205Z,101860.36
2018-05-03T15:23:00.215Z,101862.93
2018-05-03T15:25:26.278Z,101863.22
2018-05-03T15:27:52.293Z,101862.59
2018-05-03T15:30:18.326Z,101862.12
2018-05-03T15:32:44.308Z,101868.36
2018-05-03T15:35:10.379Z,101860.32
2018-05-03T15:37:36.493Z,101864.16
2018-05-03T15:40:02.538Z,101851.08
2018-05-03T15:42:28.572Z,101862.88
2018-05-03T15:44:54.677Z,101865.30
2018-05-03T15:47:20.747Z,101871.78
2018-05-03T15:49:46.773Z,101869.77
2018-05-03T15:52:12.781Z,101866.39
2018-05-03T15:54:38.873Z,101870.71
2018-05-03T15:57:04.909Z,101864.72
2018-05-03T15:59:30.953Z,101867.61
2018-05-03T16:01:57.114Z,101868.44
2018-05-03T16:04:23.285Z,101871.75
2018-05-03T16:06:49.321Z,101867.27
2018-05-03T16:09:15.420Z,101870.59
2018-05-03T16:11:41.486Z,101873.46
2018-05-03T16:14:07.492Z,101877.27
2018-05-03T16:16:33.591Z,101869.44
2018-05-03T16:18:59.611Z,101872.38
2018-05-03T16:21:25.960Z,101869.74
2018-05-03T16:23:51.999Z,101863.21
2018-05-03T16:26:18.050Z,101863.91
2018-05-03T16:28:44.059Z,101868.41
2018-05-03T16:31:10.082Z,101869.97
2018-05-03T16:33:36.113Z,101871.93
2018-05-03T16:36:02.104Z,101876.41
2018-05-03T16:38:28.157Z,101873.31
2018-05-03T16:40:54.175Z,101878.11
2018-05-03T16:43:20.818Z,101877.78
2018-05-03T16:45:46.861Z,101874.25
2018-05-03T16:48:12.852Z,101876.56
2018-05-03T16:50:38.941Z,101875.89
2018-05-03T16:53:04.986Z,101876.34
2018-05-03T16:55:31.122Z,101878.92
2018-05-03T16:57:57.641Z,101873.09
2018-05-03T17:00:23.679Z,101875.73
2018-05-03T17:02:50.505Z,101885.77
2018-05-03T17:05:16.565Z,101883.91
2018-05-03T17:07:43.178Z,101894.95
2018-05-03T17:10:09.295Z,101893.57
2018-05-03T17:12:35.456Z,101893.95
2018-05-03T17:15:01.470Z,101895.04
2018-05-03T17:17:27.493Z,101906.40
2018-05-03T17:19:53.554Z,101902.27
2018-05-03T17:22:20.246Z,101900.81
2018-05-03T17:24:46.773Z,101917.00
2018-05-03T17:27:12.805Z,101914.41
2018-05-03T17:29:38.810Z,101915.70
2018-05-03T17:32:04.963Z,101922.80
2018-05-03T17:34:31.172Z,101921.45
2018-05-03T17:36:57.212Z,101914.94
2018-05-03T17:39:23.285Z,101917.67
2018-05-03T17:41:49.427Z,101926.77
2018-05-03T17:44:15.520Z,101923.80
2018-05-03T17:46:41.687Z,101928.47
2018-05-03T17:49:07.891Z,101933.34
2018-05-03T17:51:33.895Z,101933.15
2018-05-03T17:54:00.057Z,101941.75
2018-05-03T17:56:26.083Z,101943.03
2018-05-03T17:58:52.212Z,101951.47
2018-05-03T18:01:18.255Z,101948.39
2018-05-03T18:03:44.388Z,101944.27
2018-05-03T18:06:10.491Z,101949.31
2018-05-03T18:08:36.519Z,101953.93
2018-05-03T18:11:02.636Z,101962.53
2018-05-03T18:13:28.805Z,101957.39
2018-05-03T18:15:54.886Z,101962.72
2018-05-03T18:18:20.916Z,101965.39
2018-05-03T18:20:47.101Z,101972.19
2018-05-03T18:23:13.216Z,101973.90
2018-05-03T18:25:43.509Z,101983.34
2018-05-03T18:28:09.618Z,101979.62
2018-05-03T18:30:35.581Z,101987.45
2018-05-03T18:33:01.594Z,101990.64
2018-05-03T18:35:27.801Z,101992.66
2018-05-03T18:37:53.814Z,101996.90
2018-05-03T18:40:19.903Z,101994.30
2018-05-03T18:42:45.836Z,101996.48
2018-05-03T18:45:11.867Z,102002.48
2018-05-03T18:47:37.883Z,102001.66
2018-05-03T18:50:03.914Z,102001.30
2018-05-03T18:52:29.935Z,102007.84
2018-05-03T18:54:56.126Z,102007.13
2018-05-03T18:57:22.187Z,102012.15
2018-05-03T18:59:48.209Z,102016.30
2018-05-03T19:02:14.251Z,102015.67
2018-05-03T19:04:40.255Z,102018.19
2018-05-03T19:07:06.367Z,102022.42
2018-05-03T19:09:32.405Z,102020.41
2018-05-03T19:11:58.474Z,102023.50
2018-05-03T19:14:24.562Z,102029.95
2018-05-03T19:16:50.686Z,102037.60
2018-05-03T19:19:16.816Z,102032.03
2018-05-03T19:21:42.897Z,102035.80
2018-05-03T19:24:08.995Z,102034.27
2018-05-03T19:26:35.138Z,102024.97
2018-05-03T19:29:01.288Z,102024.28
2018-05-03T19:31:27.416Z,102023.08
2018-05-03T19:33:53.587Z,102026.15
2018-05-03T19:36:19.635Z,102024.09
2018-05-03T19:38:45.715Z,102027.39
2018-05-03T19:41:11.744Z,102029.77
2018-05-03T19:43:37.764Z,102036.28
2018-05-03T19:46:03.810Z,102035.76
2018-05-03T19:48:29.872Z,102041.69
2018-05-03T19:50:55.920Z,102042.69
2018-05-03T19:53:21.964Z,102043.69
2018-05-03T19:55:47.982Z,102048.11
2018-05-03T19:58:14.061Z,102047.27
2018-05-03T20:00:40.085Z,102051.43
2018-05-03T20:03:06.089Z,102055.20
2018-05-03T20:05:32.218Z,102048.44
2018-05-03T20:07:58.357Z,102047.12
2018-05-03T20:10:24.393Z,102049.34
2018-05-03T20:12:50.645Z,102053.30
2018-05-03T20:15:16.778Z,102052.04
2018-05-03T20:17:42.717Z,102054.11
2018-05-03T20:20:08.723Z,102057.58
2018-05-03T20:22:34.941Z,102061.87
2018-05-03T20:25:01.135Z,102066.48
2018-05-03T20:27:27.214Z,102064.17
2018-05-03T20:29:53.412Z,102060.05
2018-05-03T20:32:19.459Z,102066.06
2018-05-03T20:34:45.478Z,102064.36
2018-05-03T20:37:12.124Z,102069.77
2018-05-03T20:39:38.242Z,102070.91
2018-05-03T20:42:04.196Z,102066.24
2018-05-03T20:44:30.210Z,102067.06
2018-05-03T20:46:56.256Z,102066.88
2018-05-03T20:49:22.313Z,102062.45
2018-05-03T20:51:48.372Z,102065.17
2018-05-03T20:54:14.405Z,102073.42
2018-05-03T20:56:40.432Z,102074.39
2018-05-03T20:59:06.473Z,102070.08
2018-05-03T21:01:32.565Z,102065.35
2018-05-03T21:03:58.799Z,102064.44
2018-05-03T21:06:24.975Z,102059.09
2018-05-03T21:08:51.198Z,102061.09
2018-05-03T21:11:17.238Z,102067.45
2018-05-03T21:13:43.274Z,102070.75
2018-05-03T21:16:09.459Z,102065.77
2018-05-03T21:18:35.725Z,102062.91
2018-05-03T21:21:01.789Z,102060.12
2018-05-03T21:23:28.001Z,102059.08
2018-05-03T21:25:54.077Z,102055.48
2018-05-03T21:28:20.165Z,102060.75
2018-05-03T21:30:46.200Z,102062.86
2018-05-03T21:33:12.257Z,102055.23
2018-05-03T21:35:38.331Z,102053.77
2018-05-03T21:38:04.939Z,102056.25
2018-05-03T21:40:31.094Z,102061.88
2018-05-03T21:42:57.322Z,102057.67
2018-05-03T21:45:23.411Z,102062.33
2018-05-03T21:47:49.469Z,102061.59
2018-05-03T21:50:15.541Z,102053.83
2018-05-03T21:52:41.645Z,102048.25
2018-05-03T21:55:07.672Z,102057.53
2018-05-03T21:57:33.728Z,102060.48
2018-05-03T21:59:59.817Z,102055.63
2018-05-03T22:02:25.910Z,102058.05
2018-05-03T22:04:52.052Z,102051.92
2018-05-03T22:07:18.126Z,102042.70
2018-05-03T22:09:44.168Z,102052.80
2018-05-03T22:12:10.227Z,102061.98
2018-05-03T22:14:36.295Z,102058.61
2018-05-03T22:17:02.410Z,102060.64
2018-05-03T22:19:28.581Z,102063.26
2018-05-03T22:21:54.665Z,102065.98
2018-05-03T22:24:20.757Z,102063.37
2018-05-03T22:26:47.198Z,102065.41
2018-05-03T22:29:13.288Z,102072.23
2018-05-03T22:31:39.398Z,102067.19
2018-05-03T22:34:05.496Z,102060.75
2018-05-03T22:36:31.545Z,102061.40
2018-05-03T22:38:57.711Z,102056.78
2018-05-03T22:41:23.764Z,102051.62
2018-05-03T22:43:49.887Z,102060.98
2018-05-03T22:46:15.909Z,102061.69
2018-05-03T22:48:41.978Z,102068.41
2018-05-03T22:51:07.993Z,102068.09
2018-05-03T22:53:34.089Z,102067.34
2018-05-03T22:56:00.121Z,102082.95
2018-05-03T22:58:26.152Z,102071.25
2018-05-03T23:00:52.150Z,102074.23
2018-05-03T23:03:18.188Z,102075.09
2018-05-03T23:05:44.211Z,102077.48
2018-05-03T23:08:10.224Z,102078.13
2018-05-03T23:10:36.272Z,102083.88
2018-05-03T23:13:02.294Z,102074.89
2018-05-03T23:15:28.455Z,102080.80
2018-05-03T23:17:54.481Z,102077.23
2018-05-03T23:20:20.544Z,102083.02
2018-05-03T23:22:46.612Z,102076.91
2018-05-03T23:25:12.652Z,102078.34
2018-05-03T23:27:38.800Z,102075.58
2018-05-03T23:30:04.911Z,102077.55
2018-05-03T23:32:30.983Z,102081.65
2018-05-03T23:34:57.199Z,102079.95
2018-05-03T23:37:23.217Z,102082.34
2018-05-03T23:39:49.320Z,102077.23
2018-05-03T23:42:15.419Z,102075.64
2018-05-03T23:44:41.496Z,102077.23
2018-05-03T23:47:07.524Z,102077.05
2018-05-03T23:49:33.550Z,102078.12
2018-05-03T23:51:59.732Z,102078.66
2018-05-03T23:54:25.764Z,102079.29
2018-05-03T23:56:51.788Z,102076.36
2018-05-03T23:59:17.811Z,102075.23
